createdAt,value
2023-08-04T00:01:01.062Z,47.10
2023-08-04T00:03:30.105Z,42.95
2023-08-04T00:05:58.730Z,43.52
2023-08-04T00:08:27.318Z,43.40
2023-08-04T00:10:55.990Z,44.34
2023-08-04T00:13:24.500Z,44.29
2023-08-04T00:15:53.163Z,45.14
2023-08-04T00:18:21.815Z,44.13
2023-08-04T00:20:50.363Z,42.68
2023-08-04T00:23:19.272Z,43.78
2023-08-04T00:25:48.041Z,44.79
2023-08-04T00:28:16.636Z,43.99
2023-08-04T00:30:45.304Z,42.80
2023-08-04T00:33:13.977Z,44.77
2023-08-04T00:35:43.222Z,44.08
2023-08-04T00:38:12.013Z,41.69
2023-08-04T00:40:40.638Z,43.77
2023-08-04T00:43:09.496Z,42.30
2023-08-04T00:45:38.605Z,43.76
2023-08-04T00:48:07.077Z,43.70
2023-08-04T00:50:35.989Z,44.53
2023-08-04T00:53:05.204Z,44.34
2023-08-04T00:55:35.449Z,43.90
2023-08-04T00:58:04.221Z,45.17
2023-08-04T01:00:32.747Z,45.79
2023-08-04T01:03:01.579Z,45.06
2023-08-04T01:05:37.400Z,45.19
2023-08-04T01:08:43.468Z,45.61
2023-08-04T01:11:16.542Z,45.75
2023-08-04T01:13:46.394Z,46.87
2023-08-04T01:16:15.404Z,44.14
2023-08-04T01:18:44.025Z,45.55
2023-08-04T01:21:12.637Z,46.33
2023-08-04T01:23:41.739Z,46.69
2023-08-04T01:26:12.932Z,47.99
2023-08-04T01:28:42.782Z,48.02
2023-08-04T01:31:13.042Z,47.40
2023-08-04T01:33:41.649Z,46.70
2023-08-04T01:36:10.336Z,47.75
2023-08-04T01:38:38.908Z,46.82
2023-08-04T01:41:08.248Z,46.38
2023-08-04T01:43:36.952Z,46.43
2023-08-04T01:46:05.497Z,45.42
2023-08-04T01:48:34.094Z,47.55
2023-08-04T01:51:02.695Z,48.51
2023-08-04T01:53:31.226Z,46.43
2023-08-04T01:55:59.202Z,49.37
2023-08-04T01:58:27.878Z,49.96
2023-08-04T02:00:56.436Z,50.20
2023-08-04T02:03:25.084Z,50.86
2023-08-04T02:05:53.815Z,50.98
2023-08-04T02:08:22.323Z,51.38
2023-08-04T02:10:54.175Z,52.11
2023-08-04T02:13:22.580Z,51.83
2023-08-04T02:15:51.259Z,51.61
2023-08-04T02:18:19.891Z,49.74
2023-08-04T02:20:48.430Z,52.45
2023-08-04T02:23:17.337Z,53.63
2023-08-04T02:25:45.902Z,53.46
2023-08-04T02:28:14.587Z,54.37
2023-08-04T02:30:43.088Z,54.72
2023-08-04T02:33:11.664Z,54.08
2023-08-04T02:35:39.625Z,55.68
2023-08-04T02:38:08.287Z,56.39
2023-08-04T02:40:39.718Z,57.92
2023-08-04T02:43:08.311Z,58.81
2023-08-04T02:45:36.962Z,58.55
2023-08-04T02:48:05.889Z,59.01
2023-08-04T02:50:34.850Z,60.67
2023-08-04T02:53:03.481Z,59.46
2023-08-04T02:55:34.957Z,61.49
2023-08-04T02:58:03.647Z,61.06
2023-08-04T03:00:33.345Z,63.08
2023-08-04T03:03:02.536Z,62.53
2023-08-04T03:05:31.138Z,62.86
2023-08-04T03:07:59.941Z,62.33
2023-08-04T03:10:28.318Z,63.29
2023-08-04T03:12:56.894Z,63.32
2023-08-04T03:15:25.439Z,64.86
2023-08-04T03:17:54.396Z,64.33
2023-08-04T03:20:22.994Z,65.38
2023-08-04T03:22:51.998Z,65.59
2023-08-04T03:25:20.596Z,67.10
2023-08-04T03:27:49.139Z,67.14
2023-08-04T03:30:17.567Z,67.43
2023-08-04T03:32:46.044Z,67.69
2023-08-04T03:35:14.897Z,68.55
2023-08-04T03:37:43.457Z,69.07
2023-08-04T03:40:12.617Z,69.79
2023-08-04T03:42:41.267Z,70.30
2023-08-04T03:45:10.640Z,69.75
2023-08-04T03:47:39.286Z,71.07
2023-08-04T03:50:09.157Z,71.65
2023-08-04T03:52:37.790Z,72.33
2023-08-04T03:55:09.668Z,71.72
2023-08-04T03:57:38.203Z,72.61
2023-08-04T04:00:27.204Z,72.96
2023-08-04T04:02:55.800Z,72.62
2023-08-04T04:05:25.842Z,72.43
2023-08-04T04:07:54.570Z,72.91
2023-08-04T04:10:23.164Z,73.02
2023-08-04T04:12:51.720Z,73.50
2023-08-04T04:15:20.246Z,73.55
2023-08-04T04:17:49.003Z,74.34
2023-08-04T04:20:17.659Z,74.46
2023-08-04T04:22:46.455Z,74.75
2023-08-04T04:25:15.044Z,74.96
2023-08-04T04:27:43.426Z,74.82
2023-08-04T04:30:12.287Z,75.31
2023-08-04T04:32:40.953Z,74.48
2023-08-04T04:35:09.588Z,74.41
2023-08-04T04:37:38.235Z,74.91
2023-08-04T04:40:07.486Z,74.22
2023-08-04T04:42:36.272Z,75.04
2023-08-04T04:45:05.162Z,74.96
2023-08-04T04:47:33.890Z,74.36
2023-08-04T04:50:02.397Z,75.58
2023-08-04T04:52:39.132Z,75.74
2023-08-04T04:55:08.666Z,74.74
2023-08-04T04:57:42.334Z,75.24
2023-08-04T05:00:11.522Z,74.90
2023-08-04T05:02:40.057Z,74.47
2023-08-04T05:05:09.180Z,74.00
2023-08-04T05:07:37.764Z,73.43
2023-08-04T05:10:07.160Z,73.74
2023-08-04T05:12:35.739Z,75.03
2023-08-04T05:15:04.363Z,74.39
2023-08-04T05:17:33.033Z,73.82
2023-08-04T05:20:01.688Z,73.90
2023-08-04T05:22:30.871Z,74.92
2023-08-04T05:25:10.204Z,75.04
2023-08-04T05:27:39.355Z,74.15
2023-08-04T05:30:08.645Z,74.87
2023-08-04T05:32:37.239Z,74.51
2023-08-04T05:35:06.082Z,73.70
2023-08-04T05:37:36.070Z,73.84
2023-08-04T05:40:08.783Z,74.91
2023-08-04T05:42:37.814Z,74.13
2023-08-04T05:45:06.701Z,73.67
2023-08-04T05:47:35.376Z,73.30
2023-08-04T05:50:03.907Z,72.90
2023-08-04T05:52:32.503Z,73.15
2023-08-04T05:55:01.001Z,73.69
2023-08-04T05:57:29.497Z,73.69
2023-08-04T05:59:58.047Z,72.92
2023-08-04T06:02:26.672Z,72.65
2023-08-04T06:04:55.336Z,73.25
2023-08-04T06:07:23.907Z,73.35
2023-08-04T06:09:52.415Z,74.27
2023-08-04T06:12:20.984Z,74.46
2023-08-04T06:14:49.682Z,74.77
2023-08-04T06:17:18.295Z,75.46
2023-08-04T06:19:47.124Z,75.92
2023-08-04T06:22:16.190Z,76.04
2023-08-04T06:24:45.469Z,76.45
2023-08-04T06:27:14.092Z,76.53
2023-08-04T06:29:42.642Z,77.17
2023-08-04T06:32:11.186Z,76.89
2023-08-04T06:34:39.713Z,77.82
2023-08-04T06:37:08.734Z,78.35
2023-08-04T06:39:37.299Z,78.03
2023-08-04T06:42:06.468Z,78.82
2023-08-04T06:44:35.075Z,78.76
2023-08-04T06:47:03.739Z,79.37
2023-08-04T06:49:32.841Z,79.37
2023-08-04T06:52:01.533Z,79.54
2023-08-04T06:54:30.337Z,79.44
2023-08-04T06:56:58.967Z,79.57
2023-08-04T06:59:27.550Z,79.33
2023-08-04T07:01:56.127Z,78.94
2023-08-04T07:04:24.635Z,79.35
2023-08-04T07:06:53.266Z,79.60
2023-08-04T07:09:21.821Z,79.06
2023-08-04T07:11:50.616Z,79.00
2023-08-04T07:14:19.364Z,79.83
2023-08-04T07:16:48.695Z,80.70
2023-08-04T07:19:17.746Z,81.21
2023-08-04T07:21:49.258Z,81.30
2023-08-04T07:24:18.248Z,81.09
2023-08-04T07:26:46.775Z,80.60
2023-08-04T07:29:15.420Z,80.23
2023-08-04T07:31:43.974Z,80.63
2023-08-04T07:34:12.603Z,81.12
2023-08-04T07:36:41.202Z,81.18
2023-08-04T07:39:09.769Z,81.68
2023-08-04T07:41:38.231Z,81.92
2023-08-04T07:44:06.978Z,82.19
2023-08-04T07:46:35.644Z,81.96
2023-08-04T07:49:04.245Z,82.36
2023-08-04T07:51:32.464Z,83.09
2023-08-04T07:54:01.143Z,83.56
2023-08-04T07:56:36.326Z,83.85
2023-08-04T07:59:05.207Z,84.38
2023-08-04T08:01:34.180Z,84.58
2023-08-04T08:04:03.872Z,84.45
2023-08-04T08:06:32.624Z,84.71
2023-08-04T08:09:01.213Z,85.21
2023-08-04T08:11:29.979Z,84.59
2023-08-04T08:13:58.570Z,85.21
2023-08-04T08:16:27.112Z,86.23
2023-08-04T08:18:55.679Z,86.37
2023-08-04T08:21:24.352Z,86.42
2023-08-04T08:23:53.013Z,86.06
2023-08-04T08:26:21.766Z,86.72
2023-08-04T08:28:50.443Z,86.92
2023-08-04T08:31:18.975Z,86.76
2023-08-04T08:33:47.028Z,87.29
2023-08-04T08:36:15.614Z,87.59
2023-08-04T08:38:44.250Z,87.71
2023-08-04T08:41:13.880Z,87.82
2023-08-04T08:43:47.068Z,88.10
2023-08-04T08:46:16.304Z,88.28
2023-08-04T08:48:49.705Z,88.58
2023-08-04T08:51:22.108Z,89.05
2023-08-04T08:53:51.496Z,88.91
2023-08-04T08:56:21.023Z,89.01
2023-08-04T08:58:50.130Z,89.11
2023-08-04T09:01:20.103Z,90.06
2023-08-04T09:03:49.013Z,89.38
2023-08-04T09:06:17.736Z,89.49
2023-08-04T09:08:46.528Z,89.69
2023-08-04T09:11:16.191Z,89.15
2023-08-04T09:13:48.043Z,89.23
2023-08-04T09:16:17.976Z,89.01
2023-08-04T09:18:46.872Z,89.18
2023-08-04T09:21:16.409Z,89.11
2023-08-04T09:23:50.761Z,89.10
2023-08-04T09:26:20.054Z,89.47
2023-08-04T09:29:04.020Z,89.69
2023-08-04T09:31:43.932Z,89.37
2023-08-04T09:34:13.243Z,89.96
2023-08-04T09:36:44.853Z,90.23
2023-08-04T09:39:14.616Z,89.98
2023-08-04T09:41:47.968Z,90.12
2023-08-04T09:44:17.466Z,90.93
2023-08-04T09:46:53.912Z,91.23
2023-08-04T09:49:23.496Z,91.04
2023-08-04T09:51:53.511Z,91.12
2023-08-04T09:54:22.146Z,90.88
2023-08-04T09:56:53.906Z,90.72
2023-08-04T09:59:23.244Z,91.48
2023-08-04T10:01:52.228Z,91.17
2023-08-04T10:04:26.097Z,90.75
2023-08-04T10:06:56.806Z,90.59
2023-08-04T10:09:26.156Z,91.86
2023-08-04T10:11:55.458Z,91.60
2023-08-04T10:14:24.059Z,91.83
2023-08-04T10:16:53.233Z,91.36
2023-08-04T10:19:22.974Z,91.35
2023-08-04T10:21:51.729Z,91.12
2023-08-04T10:24:23.858Z,91.36
2023-08-04T10:26:55.259Z,91.45
2023-08-04T10:29:34.341Z,91.76
2023-08-04T10:32:04.712Z,91.75
2023-08-04T10:34:39.087Z,91.70
2023-08-04T10:37:13.778Z,92.45
2023-08-04T10:40:00.228Z,93.00
2023-08-04T10:42:30.890Z,92.68
2023-08-04T10:45:10.825Z,92.85
2023-08-04T10:50:21.558Z,92.55
2023-08-04T10:52:50.156Z,92.97
2023-08-04T10:55:18.831Z,92.65
2023-08-04T10:57:47.482Z,92.75
2023-08-04T11:00:17.008Z,92.00
2023-08-04T11:02:45.491Z,91.98
2023-08-04T11:05:14.345Z,92.18
2023-08-04T11:07:50.196Z,92.82
2023-08-04T11:10:19.092Z,92.17
2023-08-04T11:12:47.742Z,93.05
2023-08-04T11:15:16.310Z,93.25
2023-08-04T11:17:45.292Z,93.06
2023-08-04T11:22:48.742Z,93.69
2023-08-04T11:25:17.655Z,93.44
2023-08-04T11:27:48.529Z,94.09
2023-08-04T11:30:19.637Z,93.67
2023-08-04T11:32:52.880Z,94.34
2023-08-04T11:35:22.321Z,94.40
2023-08-04T11:37:50.949Z,94.60
2023-08-04T11:40:24.375Z,94.72
2023-08-04T11:42:53.858Z,94.78
2023-08-04T11:45:22.428Z,95.06
2023-08-04T11:47:52.068Z,94.32
2023-08-04T11:50:21.790Z,95.10
2023-08-04T11:52:50.683Z,94.59
2023-08-04T11:55:19.377Z,95.31
2023-08-04T11:57:55.036Z,95.18
2023-08-04T12:00:39.333Z,95.52
2023-08-04T12:03:08.173Z,95.66
2023-08-04T12:05:41.053Z,96.04
2023-08-04T12:08:17.375Z,95.32
2023-08-04T12:10:46.390Z,95.27
2023-08-04T12:13:38.144Z,95.46
2023-08-04T12:16:06.956Z,95.21
2023-08-04T12:18:35.695Z,95.21
2023-08-04T12:21:04.482Z,95.03
2023-08-04T12:23:33.110Z,95.28
2023-08-04T12:26:02.173Z,94.93
2023-08-04T12:28:30.613Z,94.27
2023-08-04T12:33:30.553Z,94.78
2023-08-04T12:35:59.054Z,94.15
2023-08-04T12:38:27.612Z,94.52
2023-08-04T12:40:56.182Z,94.59
2023-08-04T12:43:25.084Z,94.57
2023-08-04T12:45:54.364Z,93.85
2023-08-04T12:48:23.093Z,94.25
2023-08-04T12:50:51.739Z,94.10
2023-08-04T12:53:20.481Z,93.71
2023-08-04T12:55:49.638Z,93.79
2023-08-04T12:58:18.244Z,93.63
2023-08-04T13:00:46.917Z,93.75
2023-08-04T13:03:15.658Z,93.93
2023-08-04T13:05:44.276Z,94.11
2023-08-04T13:08:13.100Z,93.66
2023-08-04T13:10:41.781Z,93.87
2023-08-04T13:13:10.640Z,93.60
2023-08-04T13:15:45.020Z,94.05
2023-08-04T13:18:13.760Z,94.06
2023-08-04T13:20:42.701Z,93.39
2023-08-04T13:23:12.167Z,93.32
2023-08-04T13:25:42.830Z,93.25
2023-08-04T13:28:11.681Z,93.52
2023-08-04T13:30:40.694Z,92.75
2023-08-04T13:33:09.336Z,93.32
2023-08-04T13:35:37.809Z,92.96
2023-08-04T13:38:06.668Z,92.46
2023-08-04T13:40:35.225Z,92.70
2023-08-04T13:43:03.860Z,92.24
2023-08-04T13:45:32.451Z,91.34
2023-08-04T13:48:01.107Z,91.71
2023-08-04T13:50:29.758Z,91.57
2023-08-04T13:52:59.118Z,91.59
2023-08-04T13:55:27.236Z,91.53
2023-08-04T13:57:56.027Z,90.83
2023-08-04T14:00:24.843Z,89.75
2023-08-04T14:02:53.453Z,89.86
2023-08-04T14:05:22.241Z,90.55
2023-08-04T14:07:51.223Z,90.98
2023-08-04T14:10:20.014Z,90.64
2023-08-04T14:12:49.101Z,89.89
2023-08-04T14:15:17.683Z,90.05
2023-08-04T14:17:46.277Z,90.62
2023-08-04T14:20:18.112Z,90.50
2023-08-04T14:22:46.963Z,90.47
2023-08-04T14:25:15.784Z,90.19
2023-08-04T14:27:44.859Z,89.89
2023-08-04T14:30:13.820Z,89.38
2023-08-04T14:32:43.953Z,88.67
2023-08-04T14:35:12.932Z,88.35
2023-08-04T14:37:41.574Z,88.20
2023-08-04T14:40:10.706Z,88.16
2023-08-04T14:42:39.277Z,87.84
2023-08-04T14:45:09.040Z,87.61
2023-08-04T14:47:37.613Z,86.78
2023-08-04T14:50:07.065Z,86.39
2023-08-04T14:52:35.641Z,85.60
2023-08-04T14:55:04.217Z,85.67
2023-08-04T14:57:32.746Z,84.91
2023-08-04T15:00:01.140Z,84.95
2023-08-04T15:02:29.687Z,84.91
2023-08-04T15:04:58.375Z,84.58
2023-08-04T15:07:29.019Z,83.84
2023-08-04T15:09:58.299Z,84.03
2023-08-04T15:12:27.607Z,82.13
2023-08-04T15:14:56.857Z,81.99
2023-08-04T15:17:25.503Z,81.70
2023-08-04T15:19:54.198Z,82.01
2023-08-04T15:22:22.923Z,79.09
2023-08-04T15:24:51.825Z,77.84
2023-08-04T15:27:20.410Z,77.05
2023-08-04T15:29:48.929Z,75.91
2023-08-04T15:32:16.928Z,75.66
2023-08-04T15:34:48.122Z,75.28
2023-08-04T15:37:16.718Z,73.05
2023-08-04T15:39:45.292Z,73.34
2023-08-04T15:42:13.972Z,73.36
2023-08-04T15:44:42.462Z,73.89
2023-08-04T15:47:11.059Z,73.86
2023-08-04T15:49:39.643Z,72.85
2023-08-04T15:52:08.790Z,72.23
2023-08-04T15:54:37.306Z,72.17
2023-08-04T15:57:06.087Z,71.79
2023-08-04T15:59:34.581Z,70.04
2023-08-04T16:02:04.213Z,69.19
2023-08-04T16:04:32.940Z,68.55
2023-08-04T16:07:01.524Z,68.34
2023-08-04T16:09:30.181Z,66.92
2023-08-04T16:11:58.791Z,64.55
2023-08-04T16:14:27.311Z,65.39
2023-08-04T16:16:55.712Z,62.50
2023-08-04T16:19:24.677Z,61.12
2023-08-04T16:21:53.566Z,61.96
2023-08-04T16:24:22.168Z,62.69
2023-08-04T16:26:51.191Z,61.33
2023-08-04T16:29:20.040Z,60.97
2023-08-04T16:31:48.930Z,60.01
2023-08-04T16:34:17.544Z,59.05
2023-08-04T16:36:46.100Z,59.39
2023-08-04T16:39:14.686Z,60.96
2023-08-04T16:41:43.317Z,59.56
2023-08-04T16:44:11.932Z,57.54
2023-08-04T16:46:40.497Z,56.34
2023-08-04T16:49:09.283Z,55.41
2023-08-04T16:51:37.902Z,57.39
2023-08-04T16:54:06.493Z,54.33
2023-08-04T16:56:38.175Z,54.26
2023-08-04T16:59:07.587Z,54.27
2023-08-04T17:01:36.186Z,55.60
2023-08-04T17:04:04.943Z,55.65
2023-08-04T17:06:33.539Z,53.68
2023-08-04T17:09:02.041Z,52.31
2023-08-04T17:11:30.607Z,53.81
2023-08-04T17:13:59.131Z,53.80
2023-08-04T17:16:27.725Z,53.71
2023-08-04T17:18:56.133Z,57.30
2023-08-04T17:21:24.772Z,50.78
2023-08-04T17:23:54.964Z,55.39
2023-08-04T17:26:23.635Z,52.86
2023-08-04T17:28:52.255Z,50.21
2023-08-04T17:31:20.722Z,53.90
2023-08-04T17:33:49.273Z,52.89
2023-08-04T17:36:17.835Z,51.78
2023-08-04T17:38:46.450Z,50.98
2023-08-04T17:41:16.984Z,48.47
2023-08-04T17:43:49.350Z,48.55
2023-08-04T17:46:20.796Z,49.27
2023-08-04T17:48:49.335Z,48.62
2023-08-04T17:51:18.064Z,47.50
2023-08-04T17:53:46.654Z,49.03
2023-08-04T17:56:15.323Z,49.60
2023-08-04T17:58:43.954Z,47.20
2023-08-04T18:01:12.578Z,45.74
2023-08-04T18:03:41.263Z,50.34
2023-08-04T18:06:11.056Z,44.21
2023-08-04T18:08:39.827Z,46.50
2023-08-04T18:11:08.400Z,49.58
2023-08-04T18:13:37.043Z,51.52
2023-08-04T18:16:06.498Z,50.37
2023-08-04T18:18:35.087Z,50.82
2023-08-04T18:21:04.300Z,48.50
2023-08-04T18:23:33.009Z,49.68
2023-08-04T18:26:01.614Z,49.73
2023-08-04T18:28:32.909Z,46.75
2023-08-04T18:31:01.589Z,47.67
2023-08-04T18:33:30.439Z,48.81
2023-08-04T18:36:00.167Z,49.64
2023-08-04T18:38:28.906Z,48.69
2023-08-04T18:40:57.480Z,47.97
2023-08-04T18:43:26.046Z,50.06
2023-08-04T18:45:56.567Z,49.16
2023-08-04T18:48:25.467Z,49.49
2023-08-04T18:50:54.020Z,51.92
2023-08-04T18:53:22.568Z,49.55
2023-08-04T18:55:51.272Z,52.11
2023-08-04T18:58:20.157Z,51.80
2023-08-04T19:00:48.813Z,51.93
2023-08-04T19:03:17.570Z,54.64
2023-08-04T19:05:46.239Z,50.05
2023-08-04T19:08:14.779Z,51.88
2023-08-04T19:10:43.964Z,48.98
2023-08-04T19:13:12.115Z,48.19
2023-08-04T19:15:40.778Z,48.22
2023-08-04T19:18:09.417Z,47.98
2023-08-04T19:20:38.088Z,48.68
2023-08-04T19:23:06.758Z,49.68
2023-08-04T19:25:34.955Z,49.64
2023-08-04T19:28:03.530Z,48.61
2023-08-04T19:30:32.304Z,50.24
2023-08-04T19:33:01.054Z,49.87
2023-08-04T19:35:29.772Z,50.04
2023-08-04T19:37:57.838Z,52.04
2023-08-04T19:40:26.056Z,48.74
2023-08-04T19:42:54.636Z,50.33
2023-08-04T19:45:22.596Z,48.25
2023-08-04T19:47:50.658Z,51.04
2023-08-04T19:50:18.722Z,51.07
2023-08-04T19:52:47.304Z,49.12
2023-08-04T19:55:24.778Z,46.76
2023-08-04T19:58:02.290Z,47.16
2023-08-04T20:00:31.008Z,46.40
2023-08-04T20:02:59.592Z,44.73
2023-08-04T20:05:28.305Z,48.20
2023-08-04T20:07:56.340Z,47.32
2023-08-04T20:10:26.118Z,46.55
2023-08-04T20:12:56.067Z,46.94
2023-08-04T20:15:31.525Z,46.45
2023-08-04T20:18:00.528Z,46.75
2023-08-04T20:20:29.589Z,46.68
2023-08-04T20:22:58.589Z,48.65
2023-08-04T20:25:27.136Z,50.20
2023-08-04T20:27:55.718Z,49.06
2023-08-04T20:30:24.316Z,46.72
2023-08-04T20:32:53.132Z,47.37
2023-08-04T20:35:21.206Z,46.64
2023-08-04T20:37:49.181Z,46.49
2023-08-04T20:40:19.112Z,45.88
2023-08-04T20:42:47.667Z,45.77
2023-08-04T20:45:16.106Z,48.49
2023-08-04T20:47:44.848Z,48.71
2023-08-04T20:50:13.435Z,47.63
2023-08-04T20:52:41.964Z,46.51
2023-08-04T20:55:10.671Z,48.31
2023-08-04T20:57:39.191Z,49.64
2023-08-04T21:00:08.621Z,50.06
2023-08-04T21:02:37.213Z,46.78
2023-08-04T21:05:06.088Z,47.64
2023-08-04T21:07:34.677Z,49.06
2023-08-04T21:10:03.196Z,46.89
2023-08-04T21:12:31.810Z,46.58
2023-08-04T21:15:00.394Z,48.82
2023-08-04T21:17:29.138Z,47.82
2023-08-04T21:20:02.943Z,48.89
2023-08-04T21:22:32.087Z,48.33
2023-08-04T21:25:00.690Z,49.07
2023-08-04T21:27:29.285Z,47.59
2023-08-04T21:29:57.815Z,48.74
2023-08-04T21:32:26.392Z,47.54
2023-08-04T21:34:54.939Z,49.09
2023-08-04T21:37:23.448Z,47.36
2023-08-04T21:39:54.843Z,46.65
2023-08-04T21:42:24.353Z,48.08
2023-08-04T21:44:56.285Z,45.79
2023-08-04T21:47:24.965Z,47.99
2023-08-04T21:49:53.599Z,46.40
2023-08-04T21:52:22.426Z,48.20
2023-08-04T21:54:51.490Z,47.35
2023-08-04T21:57:20.005Z,46.00
2023-08-04T21:59:48.718Z,46.21
2023-08-04T22:02:17.265Z,47.21
2023-08-04T22:04:45.817Z,46.92
2023-08-04T22:07:14.588Z,47.36
2023-08-04T22:09:43.191Z,46.82
2023-08-04T22:12:11.842Z,46.02
2023-08-04T22:14:40.536Z,46.93
2023-08-04T22:17:09.117Z,45.58
2023-08-04T22:19:37.782Z,47.07
2023-08-04T22:22:10.285Z,48.97
2023-08-04T22:24:39.402Z,46.89
2023-08-04T22:27:08.869Z,48.93
2023-08-04T22:29:37.429Z,43.33
2023-08-04T22:32:07.072Z,45.46
2023-08-04T22:34:35.884Z,45.39
2023-08-04T22:37:04.600Z,45.21
2023-08-04T22:39:33.279Z,43.33
2023-08-04T22:42:01.881Z,43.89
2023-08-04T22:44:30.563Z,42.91
2023-08-04T22:46:59.205Z,42.59
2023-08-04T22:49:27.816Z,42.17
2023-08-04T22:51:56.425Z,42.55
2023-08-04T22:54:32.776Z,44.18
2023-08-04T22:57:02.659Z,44.71
2023-08-04T22:59:31.290Z,42.81
2023-08-04T23:01:59.858Z,42.71
2023-08-04T23:04:28.502Z,41.84
2023-08-04T23:06:57.093Z,40.54
2023-08-04T23:09:25.690Z,42.54
2023-08-04T23:11:54.272Z,44.73
2023-08-04T23:14:22.978Z,43.06
2023-08-04T23:16:51.770Z,44.02
2023-08-04T23:19:20.539Z,44.35
2023-08-04T23:21:49.138Z,44.05
2023-08-04T23:24:17.766Z,44.79
2023-08-04T23:26:46.287Z,44.46
2023-08-04T23:29:15.759Z,42.86
2023-08-04T23:31:44.188Z,43.83
2023-08-04T23:34:12.900Z,44.86
2023-08-04T23:36:41.515Z,46.05
2023-08-04T23:39:10.943Z,46.79
2023-08-04T23:41:39.531Z,46.91
2023-08-04T23:44:08.096Z,45.50
2023-08-04T23:46:36.725Z,44.52
2023-08-04T23:49:05.388Z,43.37
2023-08-04T23:51:33.958Z,42.62
2023-08-04T23:54:02.557Z,44.82
2023-08-04T23:56:31.674Z,44.68
2023-08-04T23:59:00.639Z,44.20
